Ragland, Alabama
Current Conditions -  °F | °C
As of 5:35 AM on Thursday 27 Nov 2014 (Local Time) from KASN Reporting Station
Overcast Overcast  
Wind Chill: 39°   Ceiling: 4600
Heat Index: 43°   Visibility: 10mi
Dew Point: 33°   Wind: 7mph
Humidity: 68%   Direction: 300°WNW
Pressure: 30.26"   Gusts: NA
Location:  33.74°N, 86.16°W
Report Text: KASN 271135Z AUTO 30006KT 10SM OVC046 06/01 A3026 RMK AO2 T00600005
Loading
Personal Weather Stations






























Interactive Weather Map New forecast layout! Learn more

10-Day Weather Forecast

Advertisements
Track Severe Weather on mobile